Startpagina
METAR-TAF:

METAR-TAF

Vliegvelden :

Büchel, Duitsland

breedte: 50-10N, lengte: 007-04E, hoogte: 478 m

Actueel weer

Dit bericht is 36 minuten geleden gemaakt, om 13:20 UTC
Wind 6 kt uit het oosten
Temperatuur 19°C
Vochtigheid 34%
Druk 1024 hPa
Zicht 10 km of meer

METAR: ETSB 101320Z AUTO 08006KT 9999 // ////// 19/03 Q1024 ///

Tijdstip: 15:56 (13:56 UTC)

Verwachting

Dit bericht is 21 uur en het 36 minuten geleden gemaakt, om 16:20 UTC
Verwachting geldig van 09 om 16 UTC tot 09 om 23 UTC
Wind 5 kt uit het oostnoordoosten
Zicht 10 km of meer
Weinig wolken op 7000 ft
Verspreide wolken op 9000 ft
Tijdelijke
van 09 om 16 UTC tot 09 om 23 UTC
Wind 5 kt uit het noordnoordoosten
Zicht: 1620 m
Verspreide wolken op 7000 ft
Gebroken wolken op 9000 ft

TAF: ETSB 091620Z 0916/0923 07005KT 9999 NSW FEW070 SCT090 TEMPO 0916/0923 03005KT 9999 NSW SCT070 BKN090 CANCEL 1620 BY ETGL

Waarnemingen en weersverwachtingen van meer dan 4000 vliegvelden (METAR en TAF).

De beschikbare stations zijn de gele en rode punten op de kaart.

Ga met uw muis naar het station om de naam te zien.

Klik dan om waarnemingen en weersverwachtingen te zien.

kaart wijzigen: klik op de groene knoppen met een zwart kruis om in te zoomen, op de groene knop met een streepje om uit te zoomen of op de groene pijlen voor aangrenzende kaarten.


METAR-TAF: